Time;durP1;ratioP1;P1;durP2;ratioP2;P2;SDS_P1;SDS_P2;PMS_P1;PMS_P2;Temp;Humidity;BMP_temperature;BMP_pressure;BME280_temperature;BME280_humidity;BME280_pressure;Samples;Min_cycle;Max_cycle;Signal;HPM_P1;HPM_P2
2023/03/26 00:01:35;;;;;;;2.25;0.90;;;12.50;88.40;;;;;;4962481;28;20081;-82
2023/03/26 00:04:02;;;;;;;1.40;0.75;;;12.50;88.40;;;;;;4967091;28;20035;-83
2023/03/26 00:06:30;;;;;;;1.40;0.70;;;12.50;88.40;;;;;;4970373;28;20018;-82
2023/03/26 00:08:57;;;;;;;1.63;0.85;;;12.40;88.30;;;;;;4995707;28;20026;-81
2023/03/26 00:11:25;;;;;;;2.13;0.80;;;12.50;88.40;;;;;;4986896;28;20027;-83
2023/03/26 00:13:55;;;;;;;1.63;0.80;;;12.50;88.30;;;;;;4969478;28;20042;-82
2023/03/26 00:16:21;;;;;;;1.50;0.80;;;12.50;88.30;;;;;;4979390;28;20077;-82
2023/03/26 00:18:47;;;;;;;1.50;0.60;;;12.40;88.30;;;;;;4977411;28;20022;-83
2023/03/26 00:21:16;;;;;;;1.35;0.85;;;12.50;88.30;;;;;;4975705;28;20057;-81
2023/03/26 00:23:42;;;;;;;1.50;0.70;;;12.50;88.30;;;;;;4968994;28;20516;-82
2023/03/26 00:26:11;;;;;;;1.98;0.98;;;12.50;88.30;;;;;;4958036;28;20034;-82
2023/03/26 00:28:40;;;;;;;1.67;0.70;;;12.50;88.30;;;;;;4957853;28;20484;-82
2023/03/26 00:31:07;;;;;;;41.67;2.97;;;12.40;88.30;;;;;;4958010;28;20028;-83
2023/03/26 00:33:37;;;;;;;2.85;0.90;;;12.40;88.20;;;;;;4965500;28;20027;-82
2023/03/26 00:36:04;;;;;;;1.10;0.80;;;12.40;88.20;;;;;;4975821;28;20033;-82
2023/03/26 00:38:30;;;;;;;2.25;0.93;;;12.50;88.30;;;;;;4977159;28;20050;-80
2023/03/26 00:41:04;;;;;;;1.30;0.80;;;12.40;88.20;;;;;;4975609;28;20126;-82
2023/03/26 00:43:31;;;;;;;1.88;0.90;;;12.40;88.20;;;;;;4972610;28;20022;-82
2023/03/26 00:45:58;;;;;;;2.28;0.82;;;12.40;88.20;;;;;;4978229;28;20488;-83
2023/03/26 00:48:26;;;;;;;2.55;0.90;;;12.40;88.20;;;;;;4976039;28;20034;-82
2023/03/26 00:50:52;;;;;;;1.98;1.05;;;12.40;88.20;;;;;;4972855;28;20030;-81
2023/03/26 00:53:18;;;;;;;2.30;0.98;;;12.40;88.20;;;;;;4972757;28;20027;-81
2023/03/26 00:55:45;;;;;;;2.17;0.90;;;12.40;88.20;;;;;;4993772;28;20026;-83
2023/03/26 00:58:12;;;;;;;2.78;1.02;;;12.40;88.20;;;;;;4974896;28;20031;-81
2023/03/26 01:00:47;;;;;;;2.30;0.93;;;12.50;88.20;;;;;;4976179;28;20373;-82
2023/03/26 01:03:15;;;;;;;2.20;0.90;;;12.50;88.20;;;;;;4979250;28;20156;-83
2023/03/26 01:05:52;;;;;;;1.90;0.90;;;12.40;88.20;;;;;;4977816;28;20589;-84
2023/03/26 01:08:26;;;;;;;1.98;1.02;;;12.40;88.20;;;;;;4977555;28;20080;-82
2023/03/26 01:11:01;;;;;;;3.10;1.00;;;12.40;88.20;;;;;;4978276;28;20030;-83
2023/03/26 01:13:29;;;;;;;0.95;0.80;;;12.50;88.20;;;;;;4972110;28;20037;-82
2023/03/26 01:15:56;;;;;;;2.00;0.85;;;12.40;88.20;;;;;;4977351;28;20435;-81
2023/03/26 01:18:25;;;;;;;1.88;0.90;;;12.40;88.20;;;;;;4999948;28;20094;-81
2023/03/26 01:20:57;;;;;;;1.70;0.80;;;12.40;88.20;;;;;;4999484;28;20438;-81
2023/03/26 01:23:29;;;;;;;2.17;1.00;;;12.50;88.20;;;;;;4980376;28;20030;-82
2023/03/26 01:26:00;;;;;;;;;;;12.40;88.20;;;;;;4980734;28;20042;-81
2023/03/26 01:28:29;;;;;;;2.25;1.05;;;12.40;88.20;;;;;;4977951;28;19906;-82
2023/03/26 01:31:13;;;;;;;2.45;0.82;;;12.50;88.20;;;;;;4977472;28;20054;-82
2023/03/26 01:33:53;;;;;;;1.85;0.80;;;12.40;88.10;;;;;;4982104;28;20029;-81
2023/03/26 01:36:36;;;;;;;2.97;1.00;;;12.40;88.20;;;;;;4992373;28;20023;-83
2023/03/26 01:39:12;;;;;;;1.98;0.93;;;12.40;88.20;;;;;;4992802;28;20031;-81
2023/03/26 01:42:07;;;;;;;2.17;1.10;;;12.40;88.10;;;;;;4964612;28;20034;-81
2023/03/26 01:44:35;;;;;;;2.15;0.90;;;12.40;88.10;;;;;;4968507;28;20039;-81
2023/03/26 01:47:01;;;;;;;3.03;1.23;;;12.40;88.10;;;;;;4959901;29;20417;-81
2023/03/26 01:49:28;;;;;;;2.63;1.15;;;12.40;88.20;;;;;;4959381;29;20093;-81
2023/03/26 01:51:56;;;;;;;1.50;1.00;;;12.40;88.10;;;;;;4962699;28;20038;-82
2023/03/26 01:54:27;;;;;;;2.67;1.00;;;12.40;88.20;;;;;;4967079;28;20030;-82
2023/03/26 01:57:16;;;;;;;1.25;0.85;;;12.40;88.20;;;;;;4976775;28;20018;-82
2023/03/26 01:59:51;;;;;;;1.90;0.90;;;12.40;88.20;;;;;;4995584;28;20030;-81
2023/03/26 02:02:29;;;;;;;1.77;0.90;;;12.40;88.10;;;;;;4983925;28;20521;-82
2023/03/26 02:05:04;;;;;;;1.92;1.10;;;12.40;88.20;;;;;;4980371;28;20045;-81
2023/03/26 02:07:42;;;;;;;1.77;0.90;;;12.40;88.20;;;;;;4978877;28;20077;-82
2023/03/26 02:10:15;;;;;;;1.80;0.90;;;12.40;88.20;;;;;;4977778;28;20026;-81
2023/03/26 02:12:42;;;;;;;1.88;0.93;;;12.40;88.20;;;;;;4972607;28;20031;-82
2023/03/26 02:15:09;;;;;;;2.40;0.98;;;12.40;88.20;;;;;;4978555;28;20028;-82
2023/03/26 02:17:39;;;;;;;1.80;1.00;;;12.40;88.20;;;;;;4993184;28;20023;-81
2023/03/26 02:20:09;;;;;;;2.75;0.90;;;12.40;88.20;;;;;;4996081;28;20081;-79
2023/03/26 02:22:39;;;;;;;1.45;0.90;;;12.40;88.20;;;;;;4978691;28;20035;-81
2023/03/26 02:25:10;;;;;;;1.98;1.00;;;12.40;88.20;;;;;;4986917;28;20033;-82
2023/03/26 02:27:37;;;;;;;1.65;0.90;;;12.40;88.20;;;;;;4980030;28;20035;-81
2023/03/26 02:30:07;;;;;;;2.47;1.10;;;12.40;88.20;;;;;;4975455;28;20488;-81
2023/03/26 02:32:34;;;;;;;3.08;1.10;;;12.40;88.20;;;;;;4971333;28;20090;-79
2023/03/26 02:35:00;;;;;;;2.30;1.10;;;12.40;88.30;;;;;;4972335;28;20027;-81
2023/03/26 02:37:25;;;;;;;1.80;1.08;;;12.40;88.20;;;;;;4975091;28;20023;-81
2023/03/26 02:39:51;;;;;;;2.53;1.08;;;12.40;88.20;;;;;;4975028;28;20038;-81
2023/03/26 02:42:16;;;;;;;2.03;1.02;;;12.40;88.20;;;;;;4971628;28;20035;-81
2023/03/26 02:44:42;;;;;;;1.73;1.05;;;12.40;88.20;;;;;;4969654;28;20074;-81
2023/03/26 02:47:07;;;;;;;2.05;1.00;;;12.40;88.20;;;;;;4974961;28;20053;-81
2023/03/26 02:49:33;;;;;;;2.28;1.00;;;12.40;88.30;;;;;;4975040;28;20117;-83
2023/03/26 02:51:59;;;;;;;2.20;1.10;;;12.40;88.20;;;;;;4969806;28;20027;-81
2023/03/26 02:54:25;;;;;;;2.30;1.08;;;12.40;88.20;;;;;;4971054;28;20014;-81
2023/03/26 02:56:51;;;;;;;1.83;1.00;;;12.40;88.30;;;;;;4986794;28;20033;-81
2023/03/26 02:59:17;;;;;;;2.65;1.20;;;12.40;88.30;;;;;;4975803;28;20023;-81
2023/03/26 03:01:42;;;;;;;3.50;1.20;;;12.40;88.30;;;;;;4972461;28;20081;-81
2023/03/26 03:04:10;;;;;;;3.47;1.17;;;12.40;88.30;;;;;;4985870;28;20024;-81
2023/03/26 03:06:37;;;;;;;1.80;1.10;;;12.40;88.30;;;;;;4994725;28;20030;-81
2023/03/26 03:09:03;;;;;;;2.63;1.05;;;12.40;88.30;;;;;;4994489;28;20158;-81
2023/03/26 03:11:29;;;;;;;3.22;1.20;;;12.40;88.30;;;;;;4987711;28;20436;-81
2023/03/26 03:13:55;;;;;;;3.08;1.20;;;12.40;88.30;;;;;;4974781;28;20027;-81
2023/03/26 03:16:20;;;;;;;2.03;1.10;;;12.40;88.30;;;;;;4974681;28;20022;-81
2023/03/26 03:18:53;;;;;;;2.15;1.10;;;12.40;88.30;;;;;;4974971;28;20503;-81
2023/03/26 03:21:19;;;;;;;2.45;1.10;;;12.40;88.80;;;;;;4971744;28;20023;-81
2023/03/26 03:23:45;;;;;;;3.55;1.20;;;12.40;88.30;;;;;;4964006;28;20158;-81
2023/03/26 03:26:26;;;;;;;2.25;1.17;;;12.40;88.30;;;;;;4985065;28;20113;-81
2023/03/26 03:28:55;;;;;;;2.53;1.20;;;12.40;88.30;;;;;;4993527;28;20060;-80
2023/03/26 03:31:21;;;;;;;2.63;1.20;;;12.30;88.20;;;;;;4987535;28;20034;-81
2023/03/26 03:33:46;;;;;;;3.05;1.20;;;12.40;88.30;;;;;;4958638;28;20485;-80
2023/03/26 03:36:22;;;;;;;2.00;1.15;;;12.30;88.20;;;;;;4969501;28;20038;-81
2023/03/26 03:38:49;;;;;;;2.65;1.17;;;12.40;88.30;;;;;;4970711;28;20034;-81
2023/03/26 03:41:17;;;;;;;2.50;1.23;;;12.20;88.10;;;;;;4956405;28;20070;-81
2023/03/26 03:43:43;;;;;;;3.10;1.50;;;12.30;88.20;;;;;;4973523;28;20054;-81
2023/03/26 03:46:08;;;;;;;1.90;1.08;;;12.40;88.30;;;;;;4975417;28;20018;-81
2023/03/26 03:48:37;;;;;;;2.80;1.23;;;12.40;88.30;;;;;;4976237;28;20034;-82
2023/03/26 03:51:02;;;;;;;3.45;1.42;;;12.30;88.20;;;;;;4978920;28;20380;-83
2023/03/26 03:53:28;;;;;;;1.92;1.08;;;12.40;88.30;;;;;;4980506;28;20029;-83
2023/03/26 03:55:55;;;;;;;1.88;1.05;;;12.30;88.20;;;;;;4979587;28;20030;-82
2023/03/26 03:58:23;;;;;;;3.05;1.30;;;12.30;88.20;;;;;;4979547;28;20023;-82
2023/03/26 04:00:52;;;;;;;2.22;1.27;;;12.30;88.20;;;;;;4977834;28;20034;-81
2023/03/26 04:03:18;;;;;;;2.20;1.10;;;12.30;88.20;;;;;;4965739;28;20039;-81
2023/03/26 04:05:48;;;;;;;2.88;1.42;;;12.30;88.20;;;;;;4959667;28;20027;-83
2023/03/26 04:08:15;;;;;;;2.85;1.48;;;12.30;88.30;;;;;;4974344;28;20027;-83
2023/03/26 04:10:42;;;;;;;4.00;1.30;;;12.30;88.20;;;;;;4971742;28;20035;-81
2023/03/26 04:13:08;;;;;;;3.35;1.38;;;12.30;88.70;;;;;;4972549;28;20030;-81
2023/03/26 04:15:34;;;;;;;2.97;1.38;;;12.30;88.30;;;;;;4954995;28;20385;-81
2023/03/26 04:18:00;;;;;;;2.42;1.13;;;12.30;88.30;;;;;;4957561;29;20032;-81
2023/03/26 04:20:26;;;;;;;3.63;1.50;;;12.40;88.40;;;;;;4958912;28;20400;-82
2023/03/26 04:22:51;;;;;;;2.88;1.30;;;12.30;88.30;;;;;;4972003;28;20110;-82
2023/03/26 04:25:17;;;;;;;3.03;1.45;;;12.30;88.20;;;;;;4989381;28;20019;-81
2023/03/26 04:27:43;;;;;;;3.33;1.40;;;12.30;88.30;;;;;;4989827;28;20410;-81
2023/03/26 04:30:14;;;;;;;2.25;1.20;;;12.30;88.20;;;;;;4993864;28;20033;-81
2023/03/26 04:32:41;;;;;;;3.50;1.40;;;12.30;88.30;;;;;;4974418;28;20469;-81
2023/03/26 04:35:10;;;;;;;2.67;1.48;;;12.30;88.30;;;;;;4982778;28;20022;-80
2023/03/26 04:37:38;;;;;;;2.80;1.40;;;12.30;88.30;;;;;;4982936;28;20046;-82
2023/03/26 04:40:08;;;;;;;2.83;1.40;;;12.30;88.30;;;;;;4977156;28;20023;-80
2023/03/26 04:42:34;;;;;;;4.20;1.83;;;12.30;88.30;;;;;;4974249;28;20038;-81
2023/03/26 04:45:01;;;;;;;3.08;1.50;;;12.30;88.30;;;;;;4978302;28;20154;-82
2023/03/26 04:47:27;;;;;;;3.10;1.60;;;12.30;88.30;;;;;;4978236;28;20027;-82
2023/03/26 04:49:53;;;;;;;4.00;1.70;;;12.30;88.30;;;;;;4978094;28;20439;-82
2023/03/26 04:52:19;;;;;;;3.10;1.75;;;12.30;88.30;;;;;;4974165;28;20514;-82
2023/03/26 04:54:44;;;;;;;2.88;1.60;;;12.30;88.30;;;;;;4959304;28;20023;-82
2023/03/26 04:57:26;;;;;;;3.17;1.40;;;12.30;88.30;;;;;;4980803;28;20502;-81
2023/03/26 04:59:52;;;;;;;2.85;1.52;;;12.30;88.30;;;;;;4997962;28;20058;-81
2023/03/26 05:02:17;;;;;;;3.30;1.60;;;12.30;88.30;;;;;;4981624;28;20038;-81
2023/03/26 05:04:47;;;;;;;2.80;1.40;;;12.30;88.30;;;;;;4971288;28;20027;-81
2023/03/26 05:07:17;;;;;;;3.00;1.63;;;12.30;88.30;;;;;;4987428;28;20521;-81
2023/03/26 05:09:43;;;;;;;3.38;1.60;;;12.30;88.80;;;;;;4996968;28;20376;-81
2023/03/26 05:12:09;;;;;;;3.30;1.50;;;12.30;88.30;;;;;;4983751;28;20031;-81
2023/03/26 05:14:35;;;;;;;2.72;1.70;;;12.30;88.30;;;;;;4976717;28;20018;-81
2023/03/26 05:17:04;;;;;;;1.95;1.30;;;12.20;88.30;;;;;;4996623;28;20022;-81
2023/03/26 05:19:31;;;;;;;3.28;1.63;;;12.30;88.30;;;;;;4995542;28;20018;-82
2023/03/26 05:21:56;;;;;;;4.72;1.90;;;12.30;88.30;;;;;;4986340;28;20038;-81
2023/03/26 05:24:23;;;;;;;4.15;1.70;;;12.30;88.40;;;;;;4967114;28;20027;-81
2023/03/26 05:26:49;;;;;;;3.90;1.70;;;12.30;88.40;;;;;;4975721;28;20027;-81
2023/03/26 05:29:16;;;;;;;3.85;1.95;;;12.30;88.30;;;;;;4976448;28;20030;-81
2023/03/26 05:31:43;;;;;;;2.85;1.42;;;12.30;88.30;;;;;;4969257;28;20093;-80
2023/03/26 05:34:09;;;;;;;2.83;1.55;;;12.30;88.40;;;;;;4961762;28;20492;-81
2023/03/26 05:36:34;;;;;;;3.35;1.52;;;12.30;88.40;;;;;;4955705;28;20030;-81
2023/03/26 05:39:00;;;;;;;3.88;1.77;;;12.30;88.40;;;;;;4957400;28;20062;-81
2023/03/26 05:41:25;;;;;;;3.67;1.90;;;12.30;88.40;;;;;;4957637;28;20018;-81
2023/03/26 05:43:51;;;;;;;3.92;1.70;;;12.30;88.40;;;;;;4972436;28;20023;-81
2023/03/26 05:46:19;;;;;;;3.70;1.70;;;12.30;88.40;;;;;;4987481;28;20022;-81
2023/03/26 05:48:44;;;;;;;5.05;2.03;;;12.30;88.40;;;;;;4994370;28;20367;-81
2023/03/26 05:51:11;;;;;;;3.92;1.75;;;12.30;88.40;;;;;;4989157;28;20068;-80
2023/03/26 05:53:36;;;;;;;3.65;1.70;;;12.30;88.40;;;;;;4965524;28;20400;-80
2023/03/26 05:56:03;;;;;;;4.65;2.00;;;12.30;88.40;;;;;;4972598;28;20018;-81
2023/03/26 05:58:30;;;;;;;3.28;1.73;;;12.30;88.40;;;;;;4993326;28;20026;-81
2023/03/26 06:01:04;;;;;;;3.85;1.70;;;12.30;88.40;;;;;;4996247;28;20018;-80
2023/03/26 06:03:31;;;;;;;4.00;1.83;;;12.30;88.40;;;;;;4976226;28;20050;-81
2023/03/26 06:05:57;;;;;;;3.75;1.85;;;12.30;88.40;;;;;;4994723;28;20032;-82
2023/03/26 06:08:23;;;;;;;3.97;2.20;;;12.30;88.40;;;;;;4996677;28;20064;-83
2023/03/26 06:10:49;;;;;;;4.53;1.90;;;12.30;88.40;;;;;;4994251;28;20398;-81
2023/03/26 06:13:16;;;;;;;4.18;1.95;;;12.30;88.40;;;;;;4977409;28;20031;-81
2023/03/26 06:15:41;;;;;;;3.95;1.75;;;12.30;88.40;;;;;;4965438;28;20031;-80
2023/03/26 06:18:08;;;;;;;3.85;1.95;;;12.30;88.40;;;;;;4985075;28;20109;-81
2023/03/26 06:20:33;;;;;;;4.22;1.92;;;12.30;88.40;;;;;;4994267;28;20033;-80
2023/03/26 06:22:59;;;;;;;4.15;2.03;;;12.30;88.40;;;;;;4974207;28;20039;-81
2023/03/26 06:25:24;;;;;;;3.50;1.85;;;12.30;88.50;;;;;;4955792;29;20055;-81
2023/03/26 06:27:50;;;;;;;5.47;1.88;;;12.20;88.40;;;;;;4956114;29;20174;-81
2023/03/26 06:30:15;;;;;;;5.55;2.10;;;12.20;88.40;;;;;;4971398;28;20485;-80
2023/03/26 06:32:41;;;;;;;4.10;2.05;;;12.20;88.40;;;;;;4968486;28;20035;-81
2023/03/26 06:35:07;;;;;;;4.25;2.17;;;12.30;88.50;;;;;;4964154;28;20100;-82
2023/03/26 06:37:33;;;;;;;5.25;2.28;;;12.30;88.50;;;;;;4995595;28;20023;-81
2023/03/26 06:39:58;;;;;;;4.63;2.38;;;12.20;88.40;;;;;;4994352;28;20029;-81
2023/03/26 06:42:24;;;;;;;6.07;2.53;;;12.20;88.40;;;;;;4981878;28;20046;-81
2023/03/26 06:44:49;;;;;;;4.55;2.20;;;12.30;88.50;;;;;;4961466;28;20027;-80
2023/03/26 06:47:15;;;;;;;5.20;2.30;;;12.30;88.50;;;;;;4980798;28;20026;-81
2023/03/26 06:49:40;;;;;;;5.07;2.50;;;12.30;88.50;;;;;;4994533;28;20026;-81
2023/03/26 06:52:06;;;;;;;3.88;2.00;;;12.30;88.50;;;;;;4981402;28;20083;-80
2023/03/26 06:54:32;;;;;;;4.57;2.40;;;12.30;88.50;;;;;;4962404;28;20050;-81
2023/03/26 06:56:58;;;;;;;4.90;2.30;;;12.30;88.40;;;;;;4956345;28;20058;-81
2023/03/26 06:59:24;;;;;;;4.82;2.70;;;12.30;88.50;;;;;;4955112;28;20023;-81
2023/03/26 07:01:50;;;;;;;5.03;2.50;;;12.30;88.40;;;;;;4958789;28;20080;-81
2023/03/26 07:04:16;;;;;;;5.43;2.72;;;12.30;88.40;;;;;;4963804;28;20031;-81
2023/03/26 07:06:41;;;;;;;5.35;2.75;;;12.30;88.40;;;;;;4955105;28;20500;-80
2023/03/26 07:09:07;;;;;;;5.80;2.90;;;12.30;88.30;;;;;;4955059;28;20113;-81
2023/03/26 07:11:32;;;;;;;6.20;2.70;;;12.40;88.30;;;;;;4959194;28;20038;-81
2023/03/26 07:13:58;;;;;;;4.60;2.40;;;12.40;88.20;;;;;;4963334;28;20023;-80
2023/03/26 07:16:24;;;;;;;5.28;2.70;;;12.40;88.10;;;;;;4975561;28;20039;-81
2023/03/26 07:18:50;;;;;;;5.40;2.72;;;12.40;88.10;;;;;;4975685;28;20041;-82
2023/03/26 07:21:16;;;;;;;6.32;2.85;;;12.40;88.10;;;;;;4973994;28;20685;-81
2023/03/26 07:23:42;;;;;;;6.07;2.78;;;12.40;88.20;;;;;;4964852;28;20031;-81
2023/03/26 07:26:31;;;;;;;5.72;2.72;;;12.40;88.20;;;;;;4954797;28;20111;-80
2023/03/26 07:29:25;;;;;;;6.38;3.10;;;12.40;88.20;;;;;;4954710;28;20377;-80
2023/03/26 07:32:00;;;;;;;5.93;2.40;;;12.40;88.20;;;;;;4958603;28;20118;-81
2023/03/26 07:34:58;;;;;;;6.20;2.88;;;12.30;88.20;;;;;;4962011;28;20166;-81
2023/03/26 07:37:55;;;;;;;6.07;2.80;;;12.30;88.20;;;;;;4961621;28;20038;-81
2023/03/26 07:40:36;;;;;;;6.50;2.90;;;12.40;88.80;;;;;;4953781;28;20050;-81
2023/03/26 07:43:04;;;;;;;;;;;12.30;88.20;;;;;;4978938;28;20034;-82
2023/03/26 07:45:38;;;;;;;8.13;3.40;;;12.30;88.30;;;;;;4971377;28;19917;-82
2023/03/26 07:48:16;;;;;;;5.57;3.03;;;12.30;88.30;;;;;;4980107;28;20026;-82
2023/03/26 07:50:41;;;;;;;6.15;3.10;;;12.30;88.30;;;;;;4978639;28;20392;-82
2023/03/26 07:53:07;;;;;;;5.32;3.00;;;12.30;88.20;;;;;;4978866;28;20031;-82
2023/03/26 07:55:42;;;;;;;5.60;2.90;;;12.30;88.30;;;;;;4958365;28;20024;-82
2023/03/26 07:58:39;;;;;;;7.25;3.30;;;12.40;88.80;;;;;;4959313;28;20488;-82
2023/03/26 08:01:15;;;;;;;6.38;3.20;;;12.30;88.20;;;;;;4958703;28;20408;-81
2023/03/26 08:04:03;;;;;;;6.05;2.85;;;12.30;88.30;;;;;;4964099;28;20376;-81
2023/03/26 08:06:35;;;;;;;6.90;3.30;;;12.30;88.20;;;;;;4988518;28;20141;-81
2023/03/26 08:09:03;;;;;;;;;;;12.30;88.30;;;;;;4993916;28;20049;-81
2023/03/26 08:11:52;;;;;;;6.63;3.25;;;12.30;88.20;;;;;;4987604;28;19918;-80
2023/03/26 08:14:21;;;;;;;6.20;3.17;;;12.40;88.40;;;;;;4968870;28;20020;-81
2023/03/26 08:17:09;;;;;;;6.45;3.10;;;12.30;88.20;;;;;;4958774;29;20047;-81
2023/03/26 08:20:13;;;;;;;7.32;3.42;;;12.30;88.20;;;;;;4958339;28;20546;-82
2023/03/26 08:22:41;;;;;;;6.88;3.30;;;12.30;88.20;;;;;;4980056;28;20487;-81
2023/03/26 08:25:16;;;;;;;6.95;3.67;;;12.30;88.20;;;;;;4966716;28;20033;-82
2023/03/26 08:27:51;;;;;;;7.10;3.60;;;12.30;88.20;;;;;;4980267;28;20041;-81
2023/03/26 08:30:22;;;;;;;6.85;3.58;;;12.40;88.30;;;;;;4977315;28;20054;-81
2023/03/26 08:32:56;;;;;;;6.93;3.53;;;12.30;88.20;;;;;;4971630;28;20035;-81
2023/03/26 08:35:23;;;;;;;6.55;3.28;;;12.40;88.30;;;;;;4956381;28;20547;-82
2023/03/26 08:37:48;;;;;;;7.32;3.40;;;12.30;88.20;;;;;;4987782;28;20033;-82
2023/03/26 08:40:36;;;;;;;6.68;3.47;;;12.30;88.20;;;;;;4998976;28;20027;-81
2023/03/26 08:43:30;;;;;;;7.50;4.03;;;12.40;88.30;;;;;;4976061;28;20039;-81
2023/03/26 08:46:04;;;;;;;7.07;3.90;;;12.40;88.20;;;;;;4976914;28;20081;-82
2023/03/26 08:49:05;;;;;;;7.00;3.65;;;12.30;88.20;;;;;;4978214;28;20046;-81
2023/03/26 08:52:00;;;;;;;6.82;3.42;;;12.40;88.20;;;;;;4976006;28;20023;-81
2023/03/26 08:55:08;;;;;;;5.93;3.50;;;12.40;88.10;;;;;;4969644;28;20015;-82
2023/03/26 08:57:49;;;;;;;7.40;3.45;;;12.40;87.90;;;;;;4987480;28;20039;-81
2023/03/26 09:00:20;;;;;;;7.43;3.58;;;12.50;87.90;;;;;;4997720;28;20022;-82
2023/03/26 09:03:23;;;;;;;8.05;3.78;;;12.50;87.80;;;;;;4972606;28;20043;-82
2023/03/26 09:06:05;;;;;;;6.30;3.40;;;12.50;87.70;;;;;;4973210;28;20023;-81
2023/03/26 09:08:36;;;;;;;7.60;3.63;;;12.50;87.60;;;;;;4995551;28;20027;-83
2023/03/26 09:11:37;;;;;;;6.22;3.70;;;12.60;87.50;;;;;;4995149;28;20406;-81
2023/03/26 09:14:13;;;;;;;6.65;3.42;;;12.50;87.50;;;;;;4970584;28;20031;-81
2023/03/26 09:16:38;;;;;;;7.47;3.70;;;12.50;87.40;;;;;;4995173;28;20022;-81
2023/03/26 09:19:28;;;;;;;8.15;3.90;;;12.50;87.40;;;;;;4995032;28;20387;-81
2023/03/26 09:22:19;;;;;;;7.45;3.85;;;12.50;87.50;;;;;;4983798;28;20102;-81
2023/03/26 09:24:57;;;;;;;;;;;12.50;87.50;;;;;;4969885;28;20031;-81
2023/03/26 09:27:57;;;;;;;7.70;4.00;;;12.50;87.60;;;;;;4957667;28;19954;-81
2023/03/26 09:30:44;;;;;;;7.05;3.83;;;12.50;87.60;;;;;;4948650;28;20497;-81
2023/03/26 09:33:34;;;;;;;8.00;3.92;;;12.50;87.70;;;;;;4971967;28;20023;-81
2023/03/26 09:36:21;;;;;;;7.03;3.97;;;12.50;87.70;;;;;;4980529;28;20089;-81
2023/03/26 09:39:27;;;;;;;7.97;4.35;;;12.40;87.70;;;;;;4999392;28;20546;-81
2023/03/26 09:42:29;;;;;;;7.50;3.88;;;12.40;87.70;;;;;;4990414;28;20094;-81
2023/03/26 09:45:32;;;;;;;7.78;4.15;;;12.50;87.80;;;;;;4965033;28;20030;-81
2023/03/26 09:48:14;;;;;;;8.15;4.10;;;12.40;87.70;;;;;;4977834;28;20027;-81
2023/03/26 09:51:04;;;;;;;7.38;4.00;;;12.40;87.70;;;;;;4979169;28;20566;-81
2023/03/26 09:53:52;;;;;;;6.65;3.72;;;12.50;87.80;;;;;;4970353;28;20094;-81
2023/03/26 09:56:33;;;;;;;8.80;4.45;;;12.40;87.70;;;;;;4956945;28;20083;-81
2023/03/26 09:59:24;;;;;;;7.60;4.03;;;12.50;87.80;;;;;;4957723;28;20031;-81
2023/03/26 10:02:06;;;;;;;8.38;4.32;;;12.50;87.70;;;;;;4959602;28;20031;-82
2023/03/26 10:04:40;;;;;;;8.63;4.22;;;12.50;87.70;;;;;;4974081;28;20393;-81
2023/03/26 10:07:40;;;;;;;7.88;3.72;;;12.50;87.70;;;;;;4978482;28;20499;-81
2023/03/26 10:10:41;;;;;;;7.47;4.10;;;12.50;87.70;;;;;;4978256;28;20037;-81
2023/03/26 10:13:25;;;;;;;7.10;4.07;;;12.50;87.70;;;;;;4970008;28;20034;-81
2023/03/26 10:15:57;;;;;;;7.28;4.05;;;12.50;87.70;;;;;;4993366;28;20030;-81
2023/03/26 10:18:39;;;;;;;6.13;3.53;;;12.50;88.10;;;;;;4996039;28;20503;-81
2023/03/26 10:21:37;;;;;;;7.68;3.97;;;12.50;87.60;;;;;;4992427;28;20411;-81
2023/03/26 10:24:18;;;;;;;7.55;4.15;;;12.50;87.60;;;;;;4995068;23;20053;-85
2023/03/26 10:27:10;;;;;;;;;;;12.50;87.60;;;;;;4972292;28;20019;-85
2023/03/26 10:30:03;;;;;;;8.32;3.85;;;12.50;87.60;;;;;;4974728;28;19952;-85
2023/03/26 10:32:52;;;;;;;7.72;3.92;;;12.50;87.50;;;;;;4976329;28;20031;-85
2023/03/26 10:35:40;;;;;;;7.88;3.83;;;12.50;87.50;;;;;;4966853;28;20030;-86
2023/03/26 10:38:32;;;;;;;8.80;4.20;;;12.50;87.50;;;;;;4955992;28;20432;-86
2023/03/26 10:41:31;;;;;;;7.38;4.18;;;12.50;87.50;;;;;;4955458;28;20058;-86
2023/03/26 10:44:32;;;;;;;8.77;4.03;;;12.50;87.50;;;;;;4949679;28;20469;-85
2023/03/26 10:47:32;;;;;;;8.65;4.38;;;12.50;87.50;;;;;;4952152;29;20062;-85
2023/03/26 10:50:00;;;;;;;7.10;3.83;;;12.50;87.50;;;;;;4936293;29;20362;-86
2023/03/26 10:52:40;;;;;;;6.95;4.00;;;12.50;87.50;;;;;;4936032;29;20042;-85
2023/03/26 10:55:25;;;;;;;6.88;3.90;;;12.50;87.50;;;;;;4941804;29;20396;-86
2023/03/26 10:58:04;;;;;;;7.28;4.00;;;12.50;87.50;;;;;;4952143;29;20389;-85
2023/03/26 11:00:37;;;;;;;7.03;4.05;;;12.50;87.50;;;;;;4951786;29;20055;-85
2023/03/26 11:03:27;;;;;;;7.55;3.97;;;12.50;87.50;;;;;;4953079;29;20038;-86
2023/03/26 11:06:07;;;;;;;6.68;3.92;;;12.50;87.50;;;;;;4962759;28;20035;-86
2023/03/26 11:09:02;;;;;;;6.18;3.58;;;12.50;88.00;;;;;;4957941;28;20078;-85
2023/03/26 11:11:34;;;;;;;8.13;4.10;;;12.50;87.50;;;;;;4955010;28;20038;-85
2023/03/26 11:14:15;;;;;;;8.98;3.88;;;12.50;87.60;;;;;;4949057;28;20028;-85
2023/03/26 11:16:54;;;;;;;8.05;4.25;;;12.50;87.60;;;;;;4935964;29;20093;-86
2023/03/26 11:19:46;;;;;;;10.38;5.95;;;12.50;87.40;;;;;;4936267;29;20139;-86
2023/03/26 11:22:50;;;;;;;18.77;7.13;;;12.30;85.40;;;;;;4935477;29;20032;-86
2023/03/26 11:25:25;;;;;;;15.65;7.00;;;12.30;85.20;;;;;;4951255;29;20035;-87
2023/03/26 11:28:27;;;;;;;14.90;6.93;;;12.20;84.90;;;;;;4954997;29;20027;-84
2023/03/26 11:31:03;;;;;;;17.05;6.97;;;12.20;85.10;;;;;;4954656;29;20046;-86
2023/03/26 11:33:36;;;;;;;11.45;6.35;;;12.10;85.00;;;;;;4952944;29;20781;-86
2023/03/26 11:36:07;;;;;;;12.60;6.93;;;12.10;85.10;;;;;;4951187;29;20122;-86
2023/03/26 11:38:40;;;;;;;13.82;5.68;;;12.10;85.10;;;;;;4935755;29;20032;-86
2023/03/26 11:41:17;;;;;;;12.07;5.97;;;12.00;84.70;;;;;;4935795;29;20075;-86
2023/03/26 11:43:48;;;;;;;13.95;6.40;;;12.10;84.90;;;;;;4937701;29;20400;-85
2023/03/26 11:46:18;;;;;;;11.85;6.18;;;12.00;84.80;;;;;;4959678;28;20126;-87
2023/03/26 11:48:48;;;;;;;13.82;6.53;;;12.00;84.90;;;;;;4951479;29;20040;-85
2023/03/26 11:51:34;;;;;;;12.40;6.45;;;12.00;84.90;;;;;;4951375;29;20063;-87
2023/03/26 11:54:01;;;;;;;17.80;7.15;;;12.00;84.70;;;;;;4954263;28;20035;-86
2023/03/26 11:56:30;;;;;;;11.98;5.72;;;12.00;84.70;;;;;;4950453;28;20118;-86
2023/03/26 11:59:13;;;;;;;13.70;5.80;;;11.90;84.90;;;;;;4934852;29;20020;-86
2023/03/26 12:01:51;;;;;;;10.48;5.57;;;12.00;85.10;;;;;;4935176;29;20023;-89
2023/03/26 12:04:33;;;;;;;11.20;5.72;;;12.00;85.00;;;;;;4941297;29;20050;-85
2023/03/26 12:07:19;;;;;;;10.52;5.43;;;11.90;84.90;;;;;;4951113;29;20039;-86
2023/03/26 12:09:56;;;;;;;12.23;5.57;;;11.90;84.50;;;;;;4935210;29;20110;-86
2023/03/26 12:12:35;;;;;;;13.55;5.25;;;11.90;84.40;;;;;;4934755;29;20028;-86
2023/03/26 12:15:01;;;;;;;10.48;4.97;;;11.90;84.30;;;;;;4940684;29;20051;-86
2023/03/26 12:17:34;;;;;;;12.43;5.13;;;11.90;84.20;;;;;;4949218;29;20058;-85
2023/03/26 12:20:04;;;;;;;12.77;5.30;;;11.90;84.10;;;;;;4954072;29;20020;-86
2023/03/26 12:22:36;;;;;;;9.38;4.60;;;11.90;84.00;;;;;;4953973;28;20027;-86
2023/03/26 12:25:08;;;;;;;12.48;4.85;;;11.80;83.90;;;;;;4950770;29;20062;-86
2023/03/26 12:27:36;;;;;;;9.93;4.38;;;11.80;83.90;;;;;;4953625;29;20643;-85
2023/03/26 12:30:22;;;;;;;9.70;4.65;;;11.80;83.80;;;;;;4954985;28;20024;-86
2023/03/26 12:32:49;;;;;;;10.52;4.57;;;11.90;83.80;;;;;;4953343;29;20063;-85
2023/03/26 12:35:19;;;;;;;9.02;4.47;;;11.80;83.70;;;;;;4961211;28;20078;-86
2023/03/26 12:37:46;;;;;;;10.07;4.60;;;11.90;83.70;;;;;;4950659;29;20024;-88
2023/03/26 12:40:23;;;;;;;10.35;4.20;;;11.80;83.70;;;;;;4950869;29;20455;-87
2023/03/26 12:42:59;;;;;;;7.20;3.72;;;11.80;83.70;;;;;;4934828;29;20102;-86
2023/03/26 12:45:37;;;;;;;8.88;4.10;;;11.90;83.90;;;;;;4942006;29;20082;-87
2023/03/26 12:48:03;;;;;;;10.38;4.20;;;11.80;83.90;;;;;;4953867;29;20031;-85
2023/03/26 12:50:56;;;;;;;7.22;3.90;;;11.90;83.80;;;;;;4954749;28;20118;-85
2023/03/26 12:54:12;;;;;;;9.80;4.30;;;11.90;83.80;;;;;;4950131;29;20458;-85
2023/03/26 12:57:03;;;;;;;10.45;4.00;;;11.80;83.80;;;;;;4953756;28;20027;-86
2023/03/26 12:59:55;;;;;;;8.73;3.55;;;11.80;83.60;;;;;;4953838;28;20023;-85
2023/03/26 13:02:53;;;;;;;8.88;3.70;;;11.80;83.50;;;;;;4955064;28;20062;-85
2023/03/26 13:05:29;;;;;;;9.52;3.38;;;11.80;83.30;;;;;;4944875;29;20123;-86
2023/03/26 13:08:28;;;;;;;7.30;3.25;;;11.80;83.20;;;;;;4934802;29;20027;-87
2023/03/26 13:10:56;;;;;;;7.83;3.20;;;11.80;83.20;;;;;;4938040;29;20038;-86
2023/03/26 13:13:51;;;;;;;9.88;3.53;;;11.80;83.30;;;;;;4940430;29;20651;-85
2023/03/26 13:16:38;;;;;;;8.77;3.50;;;11.80;83.50;;;;;;4946626;29;20027;-85
2023/03/26 13:19:08;;;;;;;7.57;3.20;;;11.80;83.60;;;;;;4955270;28;20027;-86
2023/03/26 13:21:48;;;;;;;8.68;3.63;;;11.80;83.60;;;;;;4956914;28;20057;-86
2023/03/26 13:24:35;;;;;;;10.10;3.63;;;11.70;83.60;;;;;;4954046;28;20035;-85